Time;durP1;ratioP1;P1;durP2;ratioP2;P2;SDS_P1;SDS_P2;PMS_P1;PMS_P2;Temp;Humidity;BMP_temperature;BMP_pressure;BME280_temperature;BME280_humidity;BME280_pressure;Samples;Min_cycle;Max_cycle;Signal;HPM_P1;HPM_P2
2022/09/12 00:00:21;;;;;;;166.27;32.67;;;;;;;;;;4952766;29;20031;-55
2022/09/12 00:02:52;;;;;;;203.05;41.72;;;;;;;;;;4953837;29;20035;-54
2022/09/12 00:05:19;;;;;;;225.38;56.10;;;;;;;;;;4952700;29;20020;-54
2022/09/12 00:07:46;;;;;;;265.83;81.22;;;;;;;;;;4952511;28;20035;-53
2022/09/12 00:10:13;;;;;;;257.67;74.30;;;;;;;;;;4952449;28;20500;-53
2022/09/12 00:12:40;;;;;;;272.48;80.35;;;;;;;;;;4953073;28;20031;-54
2022/09/12 00:15:08;;;;;;;342.40;109.43;;;;;;;;;;4952990;29;20023;-55
2022/09/12 00:17:40;;;;;;;294.10;101.97;;;;;;;;;;4951556;29;20104;-55
2022/09/12 00:20:09;;;;;;;317.85;97.38;;;;;;;;;;4950983;28;20031;-55
2022/09/12 00:22:36;;;;;;;299.25;102.65;;;;;;;;;;4952855;29;20043;-52
2022/09/12 00:25:04;;;;;;;306.30;99.82;;;;;;;;;;4938841;28;20038;-56
2022/09/12 00:27:31;;;;;;;288.35;91.72;;;;;;;;;;4957141;28;20039;-57
2022/09/12 00:29:58;;;;;;;269.67;83.65;;;;;;;;;;4952842;28;20117;-62
2022/09/12 00:32:27;;;;;;;277.90;87.78;;;;;;;;;;4952618;29;20031;-55
2022/09/12 00:34:54;;;;;;;272.80;85.15;;;;;;;;;;4953121;28;20039;-57
2022/09/12 00:37:21;;;;;;;259.27;87.15;;;;;;;;;;4953252;28;20027;-56
2022/09/12 00:39:48;;;;;;;263.88;84.03;;;;;;;;;;4953920;28;20050;-52
2022/09/12 00:42:15;;;;;;;261.17;82.38;;;;;;;;;;4956457;29;20035;-57
2022/09/12 00:44:46;;;;;;;240.68;79.95;;;;;;;;;;4953113;29;20027;-53
2022/09/12 00:47:25;;;;;;;264.95;78.22;;;;;;;;;;4953528;29;20077;-55
2022/09/12 00:49:55;;;;;;;233.75;73.60;;;;;;;;;;4955340;28;20367;-55
2022/09/12 00:52:32;;;;;;;224.35;73.13;;;;;;;;;;4956783;29;20042;-55
2022/09/12 00:55:01;;;;;;;247.88;72.32;;;;;;;;;;4956868;29;20031;-56
2022/09/12 00:57:46;;;;;;;200.85;68.68;;;;;;;;;;4956876;29;20393;-52
2022/09/12 01:00:16;;;;;;;227.60;70.80;;;;;;;;;;4955699;29;20039;-49
2022/09/12 01:02:46;;;;;;;191.85;65.40;;;;;;;;;;4956960;29;20109;-55
2022/09/12 01:05:31;;;;;;;206.23;65.93;;;;;;;;;;4956272;28;20114;-53
2022/09/12 01:08:07;;;;;;;184.85;62.15;;;;;;;;;;4956495;28;20097;-53
2022/09/12 01:10:35;;;;;;;193.48;66.63;;;;;;;;;;4957195;29;20442;-54
2022/09/12 01:13:04;;;;;;;191.73;64.07;;;;;;;;;;4956436;29;20035;-54
2022/09/12 01:15:31;;;;;;;189.57;63.15;;;;;;;;;;4956527;29;20031;-47
2022/09/12 01:18:17;;;;;;;177.88;58.97;;;;;;;;;;4956701;29;20070;-53
2022/09/12 01:20:50;;;;;;;186.23;57.85;;;;;;;;;;4956416;28;20561;-56
2022/09/12 01:23:55;;;;;;;181.23;59.03;;;;;;;;;;4955595;29;20498;-53
2022/09/12 01:26:25;;;;;;;154.98;55.40;;;;;;;;;;4859779;29;20108;-55
2022/09/12 01:28:57;;;;;;;159.60;54.63;;;;;;;;;;4860841;29;20050;-55
2022/09/12 01:31:31;;;;;;;159.98;55.30;;;;;;;;;;4913035;29;20367;-55
2022/09/12 01:34:19;;;;;;;159.07;54.63;;;;;;;;;;4957027;29;20057;-51
2022/09/12 01:36:57;;;;;;;149.15;56.60;;;;;;;;;;4956712;29;20026;-55
2022/09/12 01:39:27;;;;;;;163.85;56.67;;;;;;;;;;4955161;28;20529;-48
2022/09/12 01:42:03;;;;;;;148.55;55.60;;;;;;;;;;4956762;29;20406;-54
2022/09/12 01:44:37;;;;;;;161.35;55.15;;;;;;;;;;4943978;29;20031;-55
2022/09/12 01:47:15;;;;;;;154.02;56.00;;;;;;;;;;4956613;29;20027;-53
2022/09/12 01:49:50;;;;;;;137.32;53.40;;;;;;;;;;4944801;29;20115;-55
2022/09/12 01:52:20;;;;;;;149.80;55.03;;;;;;;;;;4956087;29;20039;-54
2022/09/12 01:54:47;;;;;;;135.48;51.50;;;;;;;;;;4956355;28;20499;-52
2022/09/12 01:57:18;;;;;;;148.90;53.85;;;;;;;;;;4956029;28;20028;-47
2022/09/12 01:59:48;;;;;;;140.10;51.65;;;;;;;;;;4954031;28;20039;-52
2022/09/12 02:02:29;;;;;;;126.50;50.60;;;;;;;;;;4954657;29;20030;-47
2022/09/12 02:05:02;;;;;;;128.32;48.45;;;;;;;;;;4953970;29;20019;-55
2022/09/12 02:07:38;;;;;;;123.60;47.90;;;;;;;;;;4954724;29;20118;-52
2022/09/12 02:10:08;;;;;;;123.65;48.15;;;;;;;;;;4955831;28;20039;-47
2022/09/12 02:12:42;;;;;;;121.63;46.67;;;;;;;;;;4956091;29;20027;-50
2022/09/12 02:15:09;;;;;;;119.13;43.80;;;;;;;;;;4955710;28;20055;-47
2022/09/12 02:17:39;;;;;;;115.10;43.00;;;;;;;;;;4954701;28;20472;-48
2022/09/12 02:20:26;;;;;;;112.20;42.92;;;;;;;;;;4955881;29;20034;-52
2022/09/12 02:22:56;;;;;;;114.65;41.08;;;;;;;;;;4952048;28;20485;-48
2022/09/12 02:25:24;;;;;;;117.25;40.03;;;;;;;;;;4955573;28;20541;-47
2022/09/12 02:27:59;;;;;;;123.68;39.05;;;;;;;;;;4955455;28;20078;-47
2022/09/12 02:30:28;;;;;;;109.43;38.45;;;;;;;;;;4955342;28;20020;-48
2022/09/12 02:33:01;;;;;;;118.82;39.58;;;;;;;;;;4953567;28;20062;-51
2022/09/12 02:35:38;;;;;;;102.75;37.58;;;;;;;;;;4955845;29;20039;-48
2022/09/12 02:38:28;;;;;;;101.88;36.55;;;;;;;;;;4955610;29;20040;-48
2022/09/12 02:40:55;;;;;;;111.47;37.80;;;;;;;;;;4950614;29;20102;-48
2022/09/12 02:43:22;;;;;;;95.03;34.25;;;;;;;;;;4955810;29;20107;-47
2022/09/12 02:45:49;;;;;;;101.15;35.67;;;;;;;;;;4955660;29;20086;-46
2022/09/12 02:48:25;;;;;;;96.60;34.30;;;;;;;;;;4955611;29;20027;-47
2022/09/12 02:50:52;;;;;;;92.05;32.80;;;;;;;;;;4951364;28;20031;-48
2022/09/12 02:53:19;;;;;;;82.05;32.35;;;;;;;;;;4955321;29;20110;-47
2022/09/12 02:55:46;;;;;;;96.82;33.17;;;;;;;;;;4955522;29;20457;-47
2022/09/12 02:58:17;;;;;;;86.65;30.88;;;;;;;;;;4955524;29;20030;-46
2022/09/12 03:00:49;;;;;;;87.97;32.40;;;;;;;;;;4954250;29;20082;-55
2022/09/12 03:03:16;;;;;;;82.75;30.63;;;;;;;;;;4953157;28;20029;-49
2022/09/12 03:05:51;;;;;;;91.03;30.55;;;;;;;;;;4952777;28;20024;-47
2022/09/12 03:08:27;;;;;;;90.88;29.58;;;;;;;;;;4954285;29;20030;-51
2022/09/12 03:11:13;;;;;;;78.45;28.70;;;;;;;;;;4951759;29;20023;-47
2022/09/12 03:13:55;;;;;;;75.28;28.33;;;;;;;;;;4936232;29;20027;-51
2022/09/12 03:16:28;;;;;;;64.97;26.77;;;;;;;;;;4935988;29;20422;-51
2022/09/12 03:18:55;;;;;;;67.18;25.75;;;;;;;;;;4936239;29;20569;-47
2022/09/12 03:21:26;;;;;;;65.70;24.58;;;;;;;;;;4935710;28;20502;-52
2022/09/12 03:24:04;;;;;;;72.75;26.55;;;;;;;;;;4938029;29;20036;-48
2022/09/12 03:26:31;;;;;;;72.50;25.08;;;;;;;;;;4955137;29;20138;-46
2022/09/12 03:28:58;;;;;;;69.97;25.63;;;;;;;;;;4955156;29;20481;-46
2022/09/12 03:31:25;;;;;;;64.88;26.05;;;;;;;;;;4955152;29;20429;-46
2022/09/12 03:33:52;;;;;;;63.05;25.02;;;;;;;;;;4954939;29;20397;-47
2022/09/12 03:36:24;;;;;;;67.90;23.88;;;;;;;;;;4955058;29;20107;-47
2022/09/12 03:38:51;;;;;;;65.53;25.20;;;;;;;;;;4953642;28;20121;-48
2022/09/12 03:41:18;;;;;;;53.35;22.55;;;;;;;;;;4954923;29;20033;-46
2022/09/12 03:43:45;;;;;;;56.28;23.67;;;;;;;;;;4955052;29;20061;-47
2022/09/12 03:46:13;;;;;;;55.15;23.70;;;;;;;;;;4954928;29;20077;-46
2022/09/12 03:48:40;;;;;;;55.88;21.77;;;;;;;;;;4954898;29;20030;-46
2022/09/12 03:51:09;;;;;;;54.03;21.83;;;;;;;;;;4954948;29;20027;-49
2022/09/12 03:53:36;;;;;;;57.75;20.75;;;;;;;;;;4954551;29;20089;-50
2022/09/12 03:56:07;;;;;;;53.17;21.77;;;;;;;;;;4953439;28;20062;-49
2022/09/12 03:58:35;;;;;;;54.08;21.13;;;;;;;;;;4954725;29;20035;-50
2022/09/12 04:01:12;;;;;;;47.53;20.92;;;;;;;;;;4954777;29;20039;-50
2022/09/12 04:03:40;;;;;;;46.85;20.05;;;;;;;;;;4954731;29;20437;-46
2022/09/12 04:06:08;;;;;;;47.50;19.77;;;;;;;;;;4954489;29;20494;-48
2022/09/12 04:08:36;;;;;;;43.13;18.25;;;;;;;;;;4954744;29;20385;-46
2022/09/12 04:11:07;;;;;;;48.90;19.33;;;;;;;;;;4954654;29;20035;-48
2022/09/12 04:13:35;;;;;;;42.78;18.00;;;;;;;;;;4953085;28;20027;-46
2022/09/12 04:16:03;;;;;;;47.92;19.73;;;;;;;;;;4954537;29;20050;-52
2022/09/12 04:18:30;;;;;;;45.08;18.38;;;;;;;;;;4954439;29;20039;-48
2022/09/12 04:20:57;;;;;;;41.72;17.95;;;;;;;;;;4954629;29;20035;-49
2022/09/12 04:23:24;;;;;;;39.45;17.58;;;;;;;;;;4953279;29;20039;-49
2022/09/12 04:25:58;;;;;;;37.22;16.80;;;;;;;;;;4954419;29;20130;-46
2022/09/12 04:28:27;;;;;;;43.38;18.23;;;;;;;;;;4954522;29;20035;-46
2022/09/12 04:30:55;;;;;;;44.45;16.90;;;;;;;;;;4953220;29;20032;-51
2022/09/12 04:33:22;;;;;;;37.88;16.77;;;;;;;;;;4954385;29;20482;-48
2022/09/12 04:35:49;;;;;;;37.45;16.48;;;;;;;;;;4954316;29;20079;-49
2022/09/12 04:38:16;;;;;;;33.75;16.80;;;;;;;;;;4954213;28;20053;-48
2022/09/12 04:40:43;;;;;;;36.90;16.55;;;;;;;;;;4953143;29;20139;-49
2022/09/12 04:43:10;;;;;;;38.90;16.50;;;;;;;;;;4954362;29;20513;-49
2022/09/12 04:45:37;;;;;;;38.13;16.02;;;;;;;;;;4954285;29;20020;-47
2022/09/12 04:48:04;;;;;;;33.45;15.75;;;;;;;;;;4954373;29;20038;-50
2022/09/12 04:50:31;;;;;;;35.42;14.98;;;;;;;;;;4954286;29;20551;-46
2022/09/12 04:52:58;;;;;;;34.55;15.15;;;;;;;;;;4954219;29;20028;-52
2022/09/12 04:55:25;;;;;;;32.20;14.57;;;;;;;;;;4954154;29;20027;-52
2022/09/12 04:57:52;;;;;;;31.42;14.63;;;;;;;;;;4952946;28;20477;-47
2022/09/12 05:00:19;;;;;;;30.88;14.07;;;;;;;;;;4954193;29;20031;-46
2022/09/12 05:02:46;;;;;;;29.40;15.02;;;;;;;;;;4954206;29;20111;-46
2022/09/12 05:05:13;;;;;;;32.75;14.10;;;;;;;;;;4954179;29;20038;-48
2022/09/12 05:07:40;;;;;;;33.63;14.85;;;;;;;;;;4953852;29;20065;-45
2022/09/12 05:10:07;;;;;;;33.03;13.88;;;;;;;;;;4954163;29;20036;-48
2022/09/12 05:12:35;;;;;;;26.88;13.07;;;;;;;;;;4954125;29;20086;-46
2022/09/12 05:15:02;;;;;;;32.70;13.30;;;;;;;;;;4952834;28;20441;-46
2022/09/12 05:17:31;;;;;;;29.65;14.27;;;;;;;;;;4953954;29;20512;-49
2022/09/12 05:19:59;;;;;;;32.92;13.70;;;;;;;;;;4953982;29;20456;-52
2022/09/12 05:22:26;;;;;;;25.33;12.77;;;;;;;;;;4953922;29;20035;-47
2022/09/12 05:24:53;;;;;;;27.27;13.00;;;;;;;;;;4954177;28;20035;-49
2022/09/12 05:27:20;;;;;;;25.98;12.45;;;;;;;;;;4957010;29;20024;-47
2022/09/12 05:29:47;;;;;;;27.05;12.40;;;;;;;;;;4956162;28;20023;-48
2022/09/12 05:32:14;;;;;;;30.35;13.35;;;;;;;;;;4957429;29;20114;-49
2022/09/12 05:34:41;;;;;;;26.50;12.27;;;;;;;;;;4957177;29;20034;-49
2022/09/12 05:37:08;;;;;;;29.48;13.13;;;;;;;;;;4957331;29;20493;-46
2022/09/12 05:39:35;;;;;;;24.58;11.52;;;;;;;;;;4956965;29;20058;-46
2022/09/12 05:42:02;;;;;;;25.65;12.02;;;;;;;;;;4957199;29;20031;-47
2022/09/12 05:44:29;;;;;;;24.90;12.30;;;;;;;;;;4938385;28;20031;-51
2022/09/12 05:46:56;;;;;;;21.77;11.40;;;;;;;;;;4939721;29;20081;-47
2022/09/12 05:49:23;;;;;;;25.27;11.40;;;;;;;;;;4957112;29;20031;-47
2022/09/12 05:51:50;;;;;;;22.50;11.02;;;;;;;;;;4957225;29;20035;-46
2022/09/12 05:54:19;;;;;;;20.92;10.98;;;;;;;;;;4956961;29;20027;-47
2022/09/12 05:56:47;;;;;;;20.63;9.90;;;;;;;;;;4956961;29;20042;-49
2022/09/12 05:59:19;;;;;;;24.80;10.65;;;;;;;;;;4956722;29;20117;-49
2022/09/12 06:01:46;;;;;;;22.27;10.77;;;;;;;;;;4946152;28;20039;-48
2022/09/12 06:04:13;;;;;;;23.27;11.38;;;;;;;;;;4937546;29;20059;-46
2022/09/12 06:06:43;;;;;;;30.15;10.85;;;;;;;;;;4937494;29;20019;-47
2022/09/12 06:09:11;;;;;;;21.65;10.63;;;;;;;;;;4937415;29;20044;-46
2022/09/12 06:11:39;;;;;;;20.10;10.30;;;;;;;;;;4937469;29;20256;-46
2022/09/12 06:14:07;;;;;;;17.88;9.80;;;;;;;;;;4937231;29;20443;-46
2022/09/12 06:16:36;;;;;;;19.30;9.98;;;;;;;;;;4937334;29;20038;-50
2022/09/12 06:19:07;;;;;;;20.88;10.45;;;;;;;;;;4953907;28;20035;-45
2022/09/12 06:21:38;;;;;;;20.95;10.02;;;;;;;;;;4956429;29;20031;-46
2022/09/12 06:24:06;;;;;;;21.60;10.35;;;;;;;;;;4956434;29;20481;-46
2022/09/12 06:26:33;;;;;;;17.75;9.77;;;;;;;;;;4956214;29;20035;-45
2022/09/12 06:29:01;;;;;;;19.33;9.32;;;;;;;;;;4956337;29;20486;-46
2022/09/12 06:31:29;;;;;;;21.38;9.90;;;;;;;;;;4956357;29;20370;-47
2022/09/12 06:33:57;;;;;;;22.35;9.43;;;;;;;;;;4970686;28;20561;-48
2022/09/12 06:36:49;;;;;;;20.98;9.80;;;;;;;;;;4974704;28;20134;-46
2022/09/12 06:42:33;;;;;;;17.60;8.95;;;;;;;;;;4976154;28;20125;-48
2022/09/12 06:48:16;;;;;;;19.33;9.18;;;;;;;;;;4976282;28;20054;-48
2022/09/12 06:54:00;;;;;;;14.60;8.55;;;;;;;;;;4956633;29;20074;-48
2022/09/12 06:59:43;;;;;;;16.42;8.27;;;;;;;;;;4956405;29;20065;-47
2022/09/12 07:02:11;;;;;;;16.85;8.13;;;;;;;;;;4955748;29;20066;-51
2022/09/12 07:04:39;;;;;;;19.92;8.68;;;;;;;;;;4955529;29;20075;-47
2022/09/12 07:07:06;;;;;;;18.00;8.57;;;;;;;;;;4955428;29;20042;-46
2022/09/12 07:09:33;;;;;;;16.90;7.88;;;;;;;;;;4969289;28;20118;-48
2022/09/12 07:12:03;;;;;;;18.13;8.45;;;;;;;;;;4974861;28;20030;-46
2022/09/12 07:14:30;;;;;;;16.40;8.88;;;;;;;;;;4974544;28;20444;-47
2022/09/12 07:16:57;;;;;;;16.13;7.63;;;;;;;;;;4957244;28;20078;-47
2022/09/12 07:19:24;;;;;;;17.30;8.23;;;;;;;;;;4974819;28;20035;-46
2022/09/12 07:21:51;;;;;;;16.90;7.82;;;;;;;;;;4974686;28;20054;-49
2022/09/12 07:24:17;;;;;;;13.95;7.47;;;;;;;;;;4973585;28;20026;-46
2022/09/12 07:26:44;;;;;;;15.05;7.07;;;;;;;;;;4974419;28;20093;-46
2022/09/12 07:29:15;;;;;;;18.52;7.38;;;;;;;;;;4974588;28;20027;-47
2022/09/12 07:31:42;;;;;;;14.30;7.32;;;;;;;;;;4974291;28;20061;-49
2022/09/12 07:34:09;;;;;;;13.30;7.45;;;;;;;;;;4974456;28;20564;-46
2022/09/12 07:36:36;;;;;;;12.93;7.45;;;;;;;;;;4974397;28;20038;-45
2022/09/12 07:39:03;;;;;;;12.27;6.53;;;;;;;;;;4974191;28;20050;-46
2022/09/12 07:41:32;;;;;;;16.67;7.32;;;;;;;;;;4973149;28;20034;-46
2022/09/12 07:44:00;;;;;;;16.38;7.35;;;;;;;;;;4974174;28;20074;-49
2022/09/12 07:46:31;;;;;;;12.73;6.53;;;;;;;;;;4974231;28;20027;-46
2022/09/12 07:48:59;;;;;;;11.75;6.50;;;;;;;;;;4973711;28;20031;-47
2022/09/12 07:51:26;;;;;;;13.52;6.10;;;;;;;;;;4974280;28;20027;-46
2022/09/12 07:53:53;;;;;;;13.52;6.63;;;;;;;;;;4974090;28;20027;-48
2022/09/12 07:56:20;;;;;;;15.00;6.72;;;;;;;;;;4972570;28;20047;-49
2022/09/12 07:58:48;;;;;;;13.15;6.32;;;;;;;;;;4974147;28;20496;-47
2022/09/12 08:01:16;;;;;;;10.88;6.43;;;;;;;;;;4974114;28;20069;-47
2022/09/12 08:03:44;;;;;;;12.63;6.13;;;;;;;;;;4974050;28;20043;-47
2022/09/12 08:06:12;;;;;;;10.68;5.75;;;;;;;;;;4973796;28;20033;-46
2022/09/12 08:08:40;;;;;;;12.98;5.88;;;;;;;;;;4973997;28;20489;-47
2022/09/12 08:11:09;;;;;;;12.93;6.22;;;;;;;;;;4973988;28;20031;-51
2022/09/12 08:13:37;;;;;;;12.27;6.38;;;;;;;;;;4972899;28;20026;-48
2022/09/12 08:16:08;;;;;;;11.18;5.75;;;;;;;;;;4973832;28;20039;-49
2022/09/12 08:18:35;;;;;;;10.98;4.95;;;;;;;;;;4972656;28;20031;-46
2022/09/12 08:21:05;;;;;;;11.35;5.75;;;;;;;;;;4973716;28;20035;-47
2022/09/12 08:23:32;;;;;;;12.25;5.90;;;;;;;;;;4973890;28;20059;-46
2022/09/12 08:26:00;;;;;;;8.57;5.22;;;;;;;;;;4973786;28;20038;-50
2022/09/12 08:28:27;;;;;;;9.35;5.25;;;;;;;;;;4974092;28;20054;-46
2022/09/12 08:30:55;;;;;;;10.18;5.93;;;;;;;;;;4972512;28;20030;-51
2022/09/12 08:33:21;;;;;;;9.43;5.90;;;;;;;;;;4973588;28;20468;-47
2022/09/12 08:35:48;;;;;;;9.38;4.90;;;;;;;;;;4973594;28;20041;-48
2022/09/12 08:38:15;;;;;;;9.93;5.53;;;;;;;;;;4973484;28;20039;-54
2022/09/12 08:40:46;;;;;;;13.38;5.85;;;;;;;;;;4973692;28;20106;-55
2022/09/12 08:43:21;;;;;;;10.02;5.03;;;;;;;;;;4973657;28;20035;-55
2022/09/12 08:45:54;;;;;;;10.50;5.20;;;;;;;;;;4951740;28;20043;-54
2022/09/12 08:48:21;;;;;;;10.70;5.22;;;;;;;;;;4954339;29;20023;-53
2022/09/12 08:50:48;;;;;;;9.32;5.13;;;;;;;;;;4954235;29;20027;-51
2022/09/12 08:53:19;;;;;;;10.65;5.15;;;;;;;;;;4954147;29;20031;-50
2022/09/12 08:55:52;;;;;;;10.38;4.90;;;;;;;;;;4954198;29;20397;-51
2022/09/12 08:58:21;;;;;;;13.77;5.05;;;;;;;;;;4956696;28;20366;-50
2022/09/12 09:00:58;;;;;;;11.85;5.03;;;;;;;;;;4973180;28;20045;-53
2022/09/12 09:03:35;;;;;;;14.48;4.80;;;;;;;;;;4975900;28;20042;-55
2022/09/12 09:06:08;;;;;;;10.32;4.70;;;;;;;;;;4977025;28;20074;-56
2022/09/12 09:08:55;;;;;;;11.55;5.22;;;;;;;;;;4977008;28;20026;-53
2022/09/12 09:11:34;;;;;;;15.82;5.10;;;;;;;;;;4976806;28;20035;-54
2022/09/12 09:17:08;;;;;;;12.90;5.20;;;;;;;;;;4977102;28;20049;-55
2022/09/12 09:19:46;;;;;;;11.18;4.70;;;;;;;;;;4975663;28;20037;-51
2022/09/12 09:22:36;;;;;;;10.57;4.88;;;;;;;;;;4976765;28;20031;-54
2022/09/12 09:25:35;;;;;;;10.55;4.88;;;;;;;;;;4969123;28;20051;-54
2022/09/12 09:28:06;;;;;;;16.58;5.18;;;;;;;;;;4944683;28;20043;-52
2022/09/12 09:30:34;;;;;;;11.90;4.93;;;;;;;;;;4976762;28;20026;-51
2022/09/12 09:33:03;;;;;;;10.27;5.00;;;;;;;;;;4975980;28;20110;-55
2022/09/12 09:35:44;;;;;;;10.98;4.47;;;;;;;;;;4978811;28;20563;-55
2022/09/12 09:38:23;;;;;;;16.42;4.80;;;;;;;;;;4984465;28;20046;-54
2022/09/12 09:41:10;;;;;;;9.63;4.60;;;;;;;;;;4985373;28;20085;-55
2022/09/12 09:43:37;;;;;;;10.02;4.53;;;;;;;;;;4986501;28;20044;-55
2022/09/12 09:46:05;;;;;;;14.15;4.75;;;;;;;;;;4973339;28;20034;-55
2022/09/12 09:48:37;;;;;;;11.70;4.05;;;;;;;;;;4995829;28;20022;-52
2022/09/12 09:51:05;;;;;;;14.43;4.60;;;;;;;;;;4995803;28;20073;-51
2022/09/12 09:53:51;;;;;;;16.35;4.78;;;;;;;;;;4995745;28;20030;-55
2022/09/12 09:56:29;;;;;;;19.23;4.65;;;;;;;;;;4956838;29;20078;-51
2022/09/12 09:58:56;;;;;;;15.60;5.15;;;;;;;;;;4956912;29;20041;-52
2022/09/12 10:01:31;;;;;;;13.65;4.68;;;;;;;;;;4956935;29;20094;-54
2022/09/12 10:03:58;;;;;;;17.98;4.50;;;;;;;;;;4956862;29;20050;-49
2022/09/12 10:06:35;;;;;;;15.07;5.05;;;;;;;;;;4956690;29;20028;-55
2022/09/12 10:09:14;;;;;;;21.52;5.13;;;;;;;;;;4956724;29;20106;-54
2022/09/12 10:11:41;;;;;;;22.65;5.55;;;;;;;;;;4958852;28;20027;-53
2022/09/12 10:14:26;;;;;;;25.25;5.65;;;;;;;;;;4975891;28;20030;-56
2022/09/12 10:16:53;;;;;;;26.63;5.85;;;;;;;;;;4975794;28;20077;-59
2022/09/12 10:19:23;;;;;;;24.50;6.38;;;;;;;;;;4974590;28;20035;-56
2022/09/12 10:21:55;;;;;;;23.20;6.03;;;;;;;;;;4975650;28;20038;-56
2022/09/12 10:24:24;;;;;;;31.17;6.23;;;;;;;;;;4975685;28;20393;-54
2022/09/12 10:27:11;;;;;;;32.10;6.10;;;;;;;;;;4975422;28;20031;-58
2022/09/12 10:29:52;;;;;;;29.98;7.07;;;;;;;;;;4965663;28;20039;-55
2022/09/12 10:32:22;;;;;;;36.03;6.28;;;;;;;;;;4975654;28;20022;-53
2022/09/12 10:34:53;;;;;;;40.25;6.15;;;;;;;;;;4973934;28;20101;-55
2022/09/12 10:37:31;;;;;;;40.63;6.82;;;;;;;;;;4975484;28;20022;-54
2022/09/12 10:39:59;;;;;;;48.00;7.10;;;;;;;;;;4975179;28;20173;-55
2022/09/12 10:42:43;;;;;;;46.55;7.40;;;;;;;;;;4975400;28;20050;-55
2022/09/12 10:45:25;;;;;;;47.63;7.45;;;;;;;;;;4975354;28;20030;-56
2022/09/12 10:47:53;;;;;;;41.95;7.43;;;;;;;;;;4975330;28;20027;-54
2022/09/12 10:50:27;;;;;;;41.75;7.50;;;;;;;;;;4973978;28;20031;-54
2022/09/12 10:52:55;;;;;;;47.63;7.70;;;;;;;;;;4975313;28;20030;-55
2022/09/12 10:55:25;;;;;;;53.17;8.15;;;;;;;;;;4975037;28;20185;-54
2022/09/12 10:58:01;;;;;;;58.95;8.82;;;;;;;;;;4975152;28;20031;-55
2022/09/12 11:00:30;;;;;;;52.47;7.85;;;;;;;;;;4975155;28;20049;-54
2022/09/12 11:03:15;;;;;;;57.75;8.50;;;;;;;;;;4975069;28;20026;-53
2022/09/12 11:05:52;;;;;;;66.15;9.10;;;;;;;;;;4974922;28;20065;-54
2022/09/12 11:08:24;;;;;;;53.67;8.25;;;;;;;;;;4973839;28;20031;-54
2022/09/12 11:11:03;;;;;;;53.78;8.48;;;;;;;;;;4974898;28;20023;-51
2022/09/12 11:13:46;;;;;;;60.00;8.60;;;;;;;;;;4973441;28;20516;-55
2022/09/12 11:16:25;;;;;;;52.95;8.50;;;;;;;;;;4974690;28;20077;-54
2022/09/12 11:18:55;;;;;;;52.08;8.80;;;;;;;;;;4974788;28;20062;-56
2022/09/12 11:21:22;;;;;;;52.45;8.65;;;;;;;;;;4974718;28;20033;-53
2022/09/12 11:23:55;;;;;;;49.03;7.93;;;;;;;;;;4971161;28;20438;-52
2022/09/12 11:26:27;;;;;;;51.63;8.60;;;;;;;;;;4974558;28;20031;-55
2022/09/12 11:29:03;;;;;;;55.97;8.82;;;;;;;;;;4974491;28;20030;-54
2022/09/12 11:31:37;;;;;;;51.67;8.02;;;;;;;;;;4974588;28;20114;-54
2022/09/12 11:34:08;;;;;;;61.78;9.27;;;;;;;;;;4974365;28;20035;-53
2022/09/12 11:36:38;;;;;;;49.92;7.97;;;;;;;;;;4974390;28;20081;-53
2022/09/12 11:39:12;;;;;;;45.20;8.02;;;;;;;;;;4974171;28;20046;-53
2022/09/12 11:41:46;;;;;;;60.17;8.55;;;;;;;;;;4973008;28;20046;-53
2022/09/12 11:44:24;;;;;;;50.40;7.75;;;;;;;;;;4974232;28;20035;-54
2022/09/12 11:46:51;;;;;;;60.17;9.45;;;;;;;;;;4974113;28;20039;-54
2022/09/12 11:49:25;;;;;;;46.67;7.97;;;;;;;;;;4974169;28;20122;-53
2022/09/12 11:51:59;;;;;;;53.17;8.60;;;;;;;;;;4974246;28;20050;-53
2022/09/12 11:54:29;;;;;;;52.35;8.40;;;;;;;;;;4974162;28;20023;-49
2022/09/12 11:57:02;;;;;;;47.47;7.82;;;;;;;;;;4973977;28;20093;-56
2022/09/12 11:59:32;;;;;;;46.20;7.25;;;;;;;;;;4972837;28;20035;-55
2022/09/12 12:02:00;;;;;;;44.67;8.10;;;;;;;;;;4969352;28;20067;-56
2022/09/12 12:04:32;;;;;;;46.60;6.68;;;;;;;;;;4976133;28;20026;-57
2022/09/12 12:07:05;;;;;;;41.88;6.75;;;;;;;;;;4980220;28;20397;-55
2022/09/12 12:09:32;;;;;;;51.22;7.68;;;;;;;;;;4980655;28;20026;-56
2022/09/12 12:12:01;;;;;;;40.65;6.57;;;;;;;;;;4987696;28;20460;-56
2022/09/12 12:14:36;;;;;;;46.55;7.60;;;;;;;;;;4967422;28;20089;-56
2022/09/12 12:17:03;;;;;;;42.47;6.90;;;;;;;;;;4955016;28;20066;-57
2022/09/12 12:19:37;;;;;;;44.22;7.18;;;;;;;;;;4967014;28;20136;-56
2022/09/12 12:22:23;;;;;;;41.60;7.00;;;;;;;;;;4967468;28;20070;-57
2022/09/12 12:25:04;;;;;;;41.38;6.95;;;;;;;;;;4954412;29;20028;-56
2022/09/12 12:27:49;;;;;;;40.53;6.40;;;;;;;;;;4954561;29;20027;-58
2022/09/12 12:30:32;;;;;;;29.67;6.18;;;;;;;;;;4970574;28;20074;-57
2022/09/12 12:33:07;;;;;;;33.47;6.15;;;;;;;;;;4973484;28;20047;-57
2022/09/12 12:35:46;;;;;;;72.25;7.70;;;;;;;;;;4980708;28;20037;-49
2022/09/12 12:38:29;;;;;;;38.75;6.88;;;;;;;;;;4977299;28;20073;-55
2022/09/12 12:41:16;;;;;;;41.03;7.25;;;;;;;;;;4977579;28;20031;-55
2022/09/12 12:43:43;;;;;;;39.65;7.45;;;;;;;;;;4963319;28;20043;-53
2022/09/12 12:46:11;;;;;;;44.28;6.90;;;;;;;;;;4972048;28;20031;-54
2022/09/12 12:48:53;;;;;;;40.25;6.65;;;;;;;;;;4976806;28;20041;-55
2022/09/12 12:51:39;;;;;;;33.65;6.47;;;;;;;;;;4976663;28;20035;-55
2022/09/12 12:54:26;;;;;;;36.42;6.80;;;;;;;;;;4976879;28;20026;-55
2022/09/12 12:57:04;;;;;;;29.95;5.32;;;;;;;;;;4962950;28;20038;-55
2022/09/12 12:59:31;;;;;;;37.42;5.85;;;;;;;;;;4957894;28;20118;-56
2022/09/12 13:01:59;;;;;;;37.63;4.78;;;;;;;;;;4956854;29;20118;-53
2022/09/12 13:04:28;;;;;;;31.27;5.43;;;;;;;;;;4958791;28;20035;-53
2022/09/12 13:07:04;;;;;;;25.15;4.70;;;;;;;;;;4977043;28;20027;-56
2022/09/12 13:09:34;;;;;;;34.22;4.53;;;;;;;;;;4976879;28;20134;-56
2022/09/12 13:12:03;;;;;;;20.77;4.28;;;;;;;;;;4976890;28;20477;-57
2022/09/12 13:14:42;;;;;;;21.67;4.03;;;;;;;;;;4976903;28;20046;-55
2022/09/12 13:17:22;;;;;;;21.70;3.60;;;;;;;;;;4976858;28;20425;-56
2022/09/12 13:19:49;;;;;;;22.10;3.83;;;;;;;;;;4976814;28;20058;-57
2022/09/12 13:22:21;;;;;;;18.70;3.78;;;;;;;;;;4976773;28;20023;-53
2022/09/12 13:24:51;;;;;;;22.70;4.22;;;;;;;;;;4976715;28;20130;-54
2022/09/12 13:27:22;;;;;;;23.17;3.55;;;;;;;;;;4976648;28;20086;-54
2022/09/12 13:29:49;;;;;;;33.17;4.45;;;;;;;;;;4976731;28;20035;-52
2022/09/12 13:32:17;;;;;;;21.15;4.30;;;;;;;;;;4976507;28;20054;-54
2022/09/12 13:35:06;;;;;;;18.52;3.30;;;;;;;;;;4976452;28;20027;-55
2022/09/12 13:37:48;;;;;;;17.23;2.88;;;;;;;;;;4976459;28;20038;-51
2022/09/12 13:40:18;;;;;;;17.45;2.70;;;;;;;;;;4976128;28;20505;-48
2022/09/12 13:42:48;;;;;;;18.00;3.38;;;;;;;;;;4975960;28;20486;-55
2022/09/12 13:45:15;;;;;;;20.73;4.13;;;;;;;;;;4976325;28;20049;-56
2022/09/12 13:47:50;;;;;;;28.38;6.43;;;;;;;;;;4975326;28;20039;-54
2022/09/12 13:50:22;;;;;;;27.45;6.18;;;;;;;;;;4976287;28;20031;-51
2022/09/12 13:52:54;;;;;;;23.83;5.25;;;;;;;;;;4976079;28;20026;-54
2022/09/12 13:55:36;;;;;;;26.45;5.85;;;;;;;;;;4975858;28;20042;-58
2022/09/12 13:58:04;;;;;;;47.05;7.28;;;;;;;;;;4980910;28;20073;-59
2022/09/12 14:00:34;;;;;;;36.78;6.35;;;;;;;;;;4978536;28;20035;-56
2022/09/12 14:05:53;;;;;;;34.95;6.03;;;;;;;;;;4982602;28;20125;-56
2022/09/12 14:08:22;;;;;;;31.60;5.07;;;;;;;;;;4981019;28;20121;-59
2022/09/12 14:10:50;;;;;;;28.40;5.13;;;;;;;;;;4975988;28;20388;-59
2022/09/12 14:13:22;;;;;;;32.55;5.25;;;;;;;;;;4975685;28;20433;-56
2022/09/12 14:15:52;;;;;;;26.42;5.00;;;;;;;;;;4975770;28;20035;-61
2022/09/12 14:18:22;;;;;;;26.80;5.20;;;;;;;;;;4978703;28;20035;-58
2022/09/12 14:20:51;;;;;;;26.52;4.47;;;;;;;;;;4975666;28;20033;-58
2022/09/12 14:23:18;;;;;;;25.95;4.85;;;;;;;;;;4975721;28;20041;-58
2022/09/12 14:25:46;;;;;;;35.78;5.72;;;;;;;;;;4975511;28;20031;-56
2022/09/12 14:28:17;;;;;;;33.25;4.82;;;;;;;;;;4975249;28;20045;-58
2022/09/12 14:30:57;;;;;;;45.63;6.00;;;;;;;;;;4975629;28;20123;-58
2022/09/12 14:33:24;;;;;;;38.22;4.55;;;;;;;;;;4975264;28;20097;-62
2022/09/12 14:35:52;;;;;;;26.70;3.67;;;;;;;;;;4972821;28;20034;-60
2022/09/12 14:38:19;;;;;;;32.83;4.45;;;;;;;;;;4974934;28;20039;-60
2022/09/12 14:40:47;;;;;;;29.77;3.65;;;;;;;;;;4973104;28;20026;-61
2022/09/12 14:43:18;;;;;;;27.95;3.95;;;;;;;;;;4964512;28;20046;-61
2022/09/12 14:45:52;;;;;;;26.17;3.22;;;;;;;;;;4974937;28;20049;-58
2022/09/12 14:48:19;;;;;;;28.30;3.55;;;;;;;;;;4975059;28;20031;-61
2022/09/12 14:50:49;;;;;;;20.60;3.38;;;;;;;;;;4974975;28;20127;-61
2022/09/12 14:53:18;;;;;;;23.40;3.10;;;;;;;;;;4974856;28;20030;-58
2022/09/12 14:55:51;;;;;;;19.02;2.78;;;;;;;;;;4974895;28;20038;-61
2022/09/12 14:58:18;;;;;;;27.70;3.30;;;;;;;;;;4974716;28;20043;-57
2022/09/12 15:01:02;;;;;;;24.00;3.45;;;;;;;;;;4974816;28;20134;-58
2022/09/12 15:03:52;;;;;;;17.65;2.95;;;;;;;;;;4974430;28;20441;-58